RJOB(METAR)
08/22 21:00
METAR RJOB 221200Z 26002KT 9999 FEW010 SCT035 BKN060 26/24 Q1009 RMK
1CU010 3CU035 6SC060 A2980=
戻る
トップページへ戻る
IMOC Co,.Ltd.